sensor_id;sensor_type;location;lat;lon;timestamp;pressure;altitude;pressure_sealevel;temperature;humidity
6030;BME280;3043;42.682;23.376;2022-11-20T00:01:35;94183.72;;;15.81;100.00
6030;BME280;3043;42.682;23.376;2022-11-20T00:04:01;94174.47;;;15.75;100.00
6030;BME280;3043;42.682;23.376;2022-11-20T00:06:27;94192.34;;;15.67;100.00
6030;BME280;3043;42.682;23.376;2022-11-20T00:08:57;94201.56;;;15.88;100.00
6030;BME280;3043;42.682;23.376;2022-11-20T00:11:24;94199.69;;;15.90;100.00
6030;BME280;3043;42.682;23.376;2022-11-20T00:13:52;94198.31;;;15.99;100.00
6030;BME280;3043;42.682;23.376;2022-11-20T00:16:23;94205.88;;;16.03;100.00
6030;BME280;3043;42.682;23.376;2022-11-20T00:18:49;94200.09;;;15.98;100.00
6030;BME280;3043;42.682;23.376;2022-11-20T00:21:20;94191.84;;;15.90;100.00
6030;BME280;3043;42.682;23.376;2022-11-20T00:23:46;94203.56;;;15.83;100.00
6030;BME280;3043;42.682;23.376;2022-11-20T00:26:13;94197.31;;;15.86;100.00
6030;BME280;3043;42.682;23.376;2022-11-20T00:28:40;94175.81;;;15.82;100.00
6030;BME280;3043;42.682;23.376;2022-11-20T00:31:09;94188.72;;;15.99;100.00
6030;BME280;3043;42.682;23.376;2022-11-20T00:33:34;94198.63;;;16.09;100.00
6030;BME280;3043;42.682;23.376;2022-11-20T00:36:02;94172.81;;;16.18;100.00
6030;BME280;3043;42.682;23.376;2022-11-20T00:38:27;94181.44;;;16.04;100.00
6030;BME280;3043;42.682;23.376;2022-11-20T00:41:07;94180.72;;;16.17;100.00
6030;BME280;3043;42.682;23.376;2022-11-20T00:43:33;94179.25;;;16.13;100.00
6030;BME280;3043;42.682;23.376;2022-11-20T00:46:00;94199.41;;;16.25;100.00
6030;BME280;3043;42.682;23.376;2022-11-20T00:48:27;94199.81;;;16.33;100.00
6030;BME280;3043;42.682;23.376;2022-11-20T00:50:53;94197.06;;;16.50;100.00
6030;BME280;3043;42.682;23.376;2022-11-20T00:53:19;94197.06;;;16.64;100.00
6030;BME280;3043;42.682;23.376;2022-11-20T00:55:55;94193.63;;;16.77;100.00
6030;BME280;3043;42.682;23.376;2022-11-20T00:58:21;94233.88;;;16.89;100.00
6030;BME280;3043;42.682;23.376;2022-11-20T01:00:47;94222.94;;;16.96;100.00
6030;BME280;3043;42.682;23.376;2022-11-20T01:03:12;94186.06;;;17.01;100.00
6030;BME280;3043;42.682;23.376;2022-11-20T01:05:38;94196.50;;;17.15;100.00
6030;BME280;3043;42.682;23.376;2022-11-20T01:08:03;94217.97;;;17.20;100.00
6030;BME280;3043;42.682;23.376;2022-11-20T01:10:29;94208.44;;;17.33;100.00
6030;BME280;3043;42.682;23.376;2022-11-20T01:12:54;94207.50;;;17.48;100.00
6030;BME280;3043;42.682;23.376;2022-11-20T01:15:40;94190.13;;;17.47;100.00
6030;BME280;3043;42.682;23.376;2022-11-20T01:18:05;94210.59;;;17.67;100.00
6030;BME280;3043;42.682;23.376;2022-11-20T01:20:35;94200.50;;;17.75;100.00
6030;BME280;3043;42.682;23.376;2022-11-20T01:23:01;94189.06;;;17.76;100.00
6030;BME280;3043;42.682;23.376;2022-11-20T01:25:26;94185.84;;;17.85;100.00
6030;BME280;3043;42.682;23.376;2022-11-20T01:27:52;94175.19;;;17.88;100.00
6030;BME280;3043;42.682;23.376;2022-11-20T01:30:17;94183.88;;;18.15;100.00
6030;BME280;3043;42.682;23.376;2022-11-20T01:32:42;94205.47;;;18.31;100.00
6030;BME280;3043;42.682;23.376;2022-11-20T01:35:08;94171.06;;;18.23;100.00
6030;BME280;3043;42.682;23.376;2022-11-20T01:37:35;94160.19;;;18.17;100.00
6030;BME280;3043;42.682;23.376;2022-11-20T01:40:00;94166.03;;;18.20;100.00
6030;BME280;3043;42.682;23.376;2022-11-20T01:42:25;94167.06;;;18.05;100.00
6030;BME280;3043;42.682;23.376;2022-11-20T01:48:12;94172.16;;;17.94;100.00
6030;BME280;3043;42.682;23.376;2022-11-20T01:50:38;94176.97;;;17.88;100.00
6030;BME280;3043;42.682;23.376;2022-11-20T01:53:07;94144.06;;;17.44;100.00
6030;BME280;3043;42.682;23.376;2022-11-20T01:55:41;94156.75;;;17.77;100.00
6030;BME280;3043;42.682;23.376;2022-11-20T01:58:07;94171.47;;;18.17;100.00
6030;BME280;3043;42.682;23.376;2022-11-20T02:00:33;94155.84;;;18.42;100.00
6030;BME280;3043;42.682;23.376;2022-11-20T02:03:01;94151.66;;;18.65;100.00
6030;BME280;3043;42.682;23.376;2022-11-20T02:05:40;94173.03;;;18.71;100.00
6030;BME280;3043;42.682;23.376;2022-11-20T02:08:08;94177.97;;;18.76;100.00
6030;BME280;3043;42.682;23.376;2022-11-20T02:10:33;94160.75;;;18.84;100.00
6030;BME280;3043;42.682;23.376;2022-11-20T02:12:59;94167.88;;;18.82;100.00
6030;BME280;3043;42.682;23.376;2022-11-20T02:15:43;94169.44;;;18.97;100.00
6030;BME280;3043;42.682;23.376;2022-11-20T02:18:09;94183.06;;;19.15;100.00
6030;BME280;3043;42.682;23.376;2022-11-20T02:20:36;94174.44;;;19.13;100.00
6030;BME280;3043;42.682;23.376;2022-11-20T02:23:05;94196.28;;;19.13;100.00
6030;BME280;3043;42.682;23.376;2022-11-20T02:25:33;94147.63;;;19.09;100.00
6030;BME280;3043;42.682;23.376;2022-11-20T02:28:00;94178.25;;;18.96;100.00
6030;BME280;3043;42.682;23.376;2022-11-20T02:30:26;94175.72;;;19.07;100.00
6030;BME280;3043;42.682;23.376;2022-11-20T02:32:52;94148.44;;;18.97;100.00
6030;BME280;3043;42.682;23.376;2022-11-20T02:37:43;94195.38;;;18.77;100.00
6030;BME280;3043;42.682;23.376;2022-11-20T02:40:10;94184.88;;;18.89;100.00
6030;BME280;3043;42.682;23.376;2022-11-20T02:42:36;94174.06;;;18.69;100.00
6030;BME280;3043;42.682;23.376;2022-11-20T02:45:04;94199.03;;;18.74;100.00
6030;BME280;3043;42.682;23.376;2022-11-20T02:47:29;94205.22;;;18.48;100.00
6030;BME280;3043;42.682;23.376;2022-11-20T02:49:55;94208.25;;;18.67;100.00
6030;BME280;3043;42.682;23.376;2022-11-20T02:52:20;94211.41;;;18.72;100.00
6030;BME280;3043;42.682;23.376;2022-11-20T02:54:46;94202.81;;;18.83;100.00
6030;BME280;3043;42.682;23.376;2022-11-20T02:57:11;94216.44;;;19.00;100.00
6030;BME280;3043;42.682;23.376;2022-11-20T02:59:36;94223.78;;;19.08;100.00
6030;BME280;3043;42.682;23.376;2022-11-20T03:02:02;94227.34;;;19.19;100.00
6030;BME280;3043;42.682;23.376;2022-11-20T03:04:27;94222.81;;;19.34;100.00
6030;BME280;3043;42.682;23.376;2022-11-20T03:06:53;94243.69;;;19.35;100.00
6030;BME280;3043;42.682;23.376;2022-11-20T03:09:18;94247.28;;;19.34;100.00
6030;BME280;3043;42.682;23.376;2022-11-20T03:11:43;94236.56;;;19.37;100.00
6030;BME280;3043;42.682;23.376;2022-11-20T03:14:09;94244.66;;;19.47;100.00
6030;BME280;3043;42.682;23.376;2022-11-20T03:16:34;94235.69;;;19.50;100.00
6030;BME280;3043;42.682;23.376;2022-11-20T03:19:00;94241.16;;;19.47;100.00
6030;BME280;3043;42.682;23.376;2022-11-20T03:21:26;94238.66;;;19.45;100.00
6030;BME280;3043;42.682;23.376;2022-11-20T03:23:53;94251.44;;;19.50;100.00
6030;BME280;3043;42.682;23.376;2022-11-20T03:26:22;94254.38;;;19.58;100.00
6030;BME280;3043;42.682;23.376;2022-11-20T03:28:58;94248.91;;;19.61;100.00
6030;BME280;3043;42.682;23.376;2022-11-20T03:31:26;94252.28;;;19.63;100.00
6030;BME280;3043;42.682;23.376;2022-11-20T03:33:52;94249.22;;;19.69;100.00
6030;BME280;3043;42.682;23.376;2022-11-20T03:36:19;94257.09;;;19.69;100.00
6030;BME280;3043;42.682;23.376;2022-11-20T03:38:45;94251.63;;;19.72;100.00
6030;BME280;3043;42.682;23.376;2022-11-20T03:41:13;94252.06;;;19.66;100.00
6030;BME280;3043;42.682;23.376;2022-11-20T03:43:39;94256.44;;;19.78;100.00
6030;BME280;3043;42.682;23.376;2022-11-20T03:46:06;94260.22;;;19.74;100.00
6030;BME280;3043;42.682;23.376;2022-11-20T03:48:32;94270.00;;;19.72;100.00
6030;BME280;3043;42.682;23.376;2022-11-20T03:51:12;94277.66;;;19.75;100.00
6030;BME280;3043;42.682;23.376;2022-11-20T03:53:39;94269.91;;;19.61;100.00
6030;BME280;3043;42.682;23.376;2022-11-20T03:56:06;94255.81;;;19.74;100.00
6030;BME280;3043;42.682;23.376;2022-11-20T03:58:33;94260.00;;;19.77;100.00
6030;BME280;3043;42.682;23.376;2022-11-20T04:01:04;94258.53;;;19.73;100.00
6030;BME280;3043;42.682;23.376;2022-11-20T04:03:30;94252.50;;;19.60;100.00
6030;BME280;3043;42.682;23.376;2022-11-20T04:06:01;94251.44;;;19.62;100.00
6030;BME280;3043;42.682;23.376;2022-11-20T04:08:28;94262.34;;;19.69;100.00
6030;BME280;3043;42.682;23.376;2022-11-20T04:10:53;94262.56;;;19.66;100.00
6030;BME280;3043;42.682;23.376;2022-11-20T04:13:19;94257.81;;;19.71;100.00
6030;BME280;3043;42.682;23.376;2022-11-20T04:15:44;94271.16;;;19.68;100.00
6030;BME280;3043;42.682;23.376;2022-11-20T04:18:09;94232.50;;;19.70;100.00
6030;BME280;3043;42.682;23.376;2022-11-20T04:20:35;94280.84;;;19.55;100.00
6030;BME280;3043;42.682;23.376;2022-11-20T04:23:00;94280.63;;;19.58;100.00
6030;BME280;3043;42.682;23.376;2022-11-20T04:25:26;94286.75;;;19.46;100.00
6030;BME280;3043;42.682;23.376;2022-11-20T04:27:51;94278.66;;;19.49;100.00
6030;BME280;3043;42.682;23.376;2022-11-20T04:30:16;94268.16;;;19.49;100.00
6030;BME280;3043;42.682;23.376;2022-11-20T04:32:42;94281.50;;;19.46;100.00
6030;BME280;3043;42.682;23.376;2022-11-20T04:35:07;94283.59;;;19.40;100.00
6030;BME280;3043;42.682;23.376;2022-11-20T04:37:33;94274.97;;;19.38;100.00
6030;BME280;3043;42.682;23.376;2022-11-20T04:39:58;94281.41;;;19.34;100.00
6030;BME280;3043;42.682;23.376;2022-11-20T04:42:24;94289.47;;;19.31;100.00
6030;BME280;3043;42.682;23.376;2022-11-20T04:44:56;94283.78;;;19.25;100.00
6030;BME280;3043;42.682;23.376;2022-11-20T04:47:22;94275.81;;;19.26;100.00
6030;BME280;3043;42.682;23.376;2022-11-20T04:49:48;94268.50;;;19.31;100.00
6030;BME280;3043;42.682;23.376;2022-11-20T04:52:13;94252.09;;;19.28;100.00
6030;BME280;3043;42.682;23.376;2022-11-20T04:54:38;94264.41;;;19.27;100.00
6030;BME280;3043;42.682;23.376;2022-11-20T04:57:04;94249.38;;;19.29;100.00
6030;BME280;3043;42.682;23.376;2022-11-20T04:59:30;94251.28;;;19.27;100.00
6030;BME280;3043;42.682;23.376;2022-11-20T05:01:55;94244.31;;;19.26;100.00
6030;BME280;3043;42.682;23.376;2022-11-20T05:04:20;94240.59;;;19.30;100.00
6030;BME280;3043;42.682;23.376;2022-11-20T05:06:46;94243.50;;;19.38;100.00
6030;BME280;3043;42.682;23.376;2022-11-20T05:09:12;94237.31;;;19.39;100.00
6030;BME280;3043;42.682;23.376;2022-11-20T05:11:38;94241.38;;;19.43;100.00
6030;BME280;3043;42.682;23.376;2022-11-20T05:14:03;94242.03;;;19.34;100.00
6030;BME280;3043;42.682;23.376;2022-11-20T05:16:29;94241.41;;;19.18;100.00
6030;BME280;3043;42.682;23.376;2022-11-20T05:18:54;94237.81;;;19.19;100.00
6030;BME280;3043;42.682;23.376;2022-11-20T05:21:21;94227.75;;;19.01;100.00
6030;BME280;3043;42.682;23.376;2022-11-20T05:23:47;94226.31;;;18.84;100.00
6030;BME280;3043;42.682;23.376;2022-11-20T05:26:18;94222.53;;;18.63;100.00
6030;BME280;3043;42.682;23.376;2022-11-20T05:28:44;94207.72;;;18.37;100.00
6030;BME280;3043;42.682;23.376;2022-11-20T05:31:12;94227.22;;;18.19;100.00
6030;BME280;3043;42.682;23.376;2022-11-20T05:33:40;94216.09;;;18.03;100.00
6030;BME280;3043;42.682;23.376;2022-11-20T05:36:06;94214.44;;;17.88;100.00
6030;BME280;3043;42.682;23.376;2022-11-20T05:38:32;94230.75;;;17.79;100.00
6030;BME280;3043;42.682;23.376;2022-11-20T05:41:14;94233.75;;;17.73;100.00
6030;BME280;3043;42.682;23.376;2022-11-20T05:43:41;94242.56;;;17.72;100.00
6030;BME280;3043;42.682;23.376;2022-11-20T05:46:09;94226.84;;;17.72;100.00
6030;BME280;3043;42.682;23.376;2022-11-20T05:48:36;94232.94;;;17.73;100.00
6030;BME280;3043;42.682;23.376;2022-11-20T05:51:04;94211.16;;;17.72;100.00
6030;BME280;3043;42.682;23.376;2022-11-20T05:53:30;94221.81;;;17.69;100.00
6030;BME280;3043;42.682;23.376;2022-11-20T05:56:02;94223.28;;;17.73;100.00
6030;BME280;3043;42.682;23.376;2022-11-20T05:58:28;94239.56;;;17.78;100.00
6030;BME280;3043;42.682;23.376;2022-11-20T06:00:54;94239.34;;;17.81;100.00
6030;BME280;3043;42.682;23.376;2022-11-20T06:03:20;94252.06;;;17.87;100.00
6030;BME280;3043;42.682;23.376;2022-11-20T06:05:46;94236.16;;;17.90;100.00
6030;BME280;3043;42.682;23.376;2022-11-20T06:08:11;94233.03;;;17.98;100.00
6030;BME280;3043;42.682;23.376;2022-11-20T06:10:37;94243.50;;;17.98;100.00
6030;BME280;3043;42.682;23.376;2022-11-20T06:13:02;94245.81;;;18.02;100.00
6030;BME280;3043;42.682;23.376;2022-11-20T06:15:27;94244.91;;;18.03;100.00
6030;BME280;3043;42.682;23.376;2022-11-20T06:17:53;94249.38;;;18.01;100.00
6030;BME280;3043;42.682;23.376;2022-11-20T06:20:20;94238.50;;;18.07;100.00
6030;BME280;3043;42.682;23.376;2022-11-20T06:22:45;94244.41;;;18.11;100.00
6030;BME280;3043;42.682;23.376;2022-11-20T06:25:11;94251.31;;;18.12;100.00
6030;BME280;3043;42.682;23.376;2022-11-20T06:27:36;94253.44;;;18.19;100.00
6030;BME280;3043;42.682;23.376;2022-11-20T06:30:03;94258.66;;;18.19;100.00
6030;BME280;3043;42.682;23.376;2022-11-20T06:32:28;94257.63;;;18.22;100.00
6030;BME280;3043;42.682;23.376;2022-11-20T06:34:54;94260.34;;;18.20;100.00
6030;BME280;3043;42.682;23.376;2022-11-20T06:37:19;94256.91;;;18.20;100.00
6030;BME280;3043;42.682;23.376;2022-11-20T06:39:45;94247.34;;;18.19;100.00
6030;BME280;3043;42.682;23.376;2022-11-20T06:42:10;94254.91;;;18.23;100.00
6030;BME280;3043;42.682;23.376;2022-11-20T06:44:35;94250.50;;;18.24;100.00
6030;BME280;3043;42.682;23.376;2022-11-20T06:47:01;94252.63;;;18.31;100.00
6030;BME280;3043;42.682;23.376;2022-11-20T06:49:26;94255.25;;;18.31;100.00
6030;BME280;3043;42.682;23.376;2022-11-20T06:51:52;94256.00;;;18.33;100.00
6030;BME280;3043;42.682;23.376;2022-11-20T06:54:17;94265.50;;;18.34;100.00
6030;BME280;3043;42.682;23.376;2022-11-20T06:56:46;94263.47;;;18.39;100.00
6030;BME280;3043;42.682;23.376;2022-11-20T06:59:12;94271.13;;;18.42;100.00
6030;BME280;3043;42.682;23.376;2022-11-20T07:01:38;94274.66;;;18.41;100.00
6030;BME280;3043;42.682;23.376;2022-11-20T07:04:03;94279.81;;;18.43;100.00
6030;BME280;3043;42.682;23.376;2022-11-20T07:06:29;94285.69;;;18.46;100.00
6030;BME280;3043;42.682;23.376;2022-11-20T07:08:54;94283.28;;;18.43;100.00
6030;BME280;3043;42.682;23.376;2022-11-20T07:11:20;94277.84;;;18.46;100.00
6030;BME280;3043;42.682;23.376;2022-11-20T07:13:45;94278.47;;;18.50;100.00
6030;BME280;3043;42.682;23.376;2022-11-20T07:16:10;94274.47;;;18.44;100.00
6030;BME280;3043;42.682;23.376;2022-11-20T07:18:36;94275.22;;;18.46;100.00
6030;BME280;3043;42.682;23.376;2022-11-20T07:21:06;94275.97;;;18.48;100.00
6030;BME280;3043;42.682;23.376;2022-11-20T07:23:32;94284.16;;;18.56;100.00
6030;BME280;3043;42.682;23.376;2022-11-20T07:26:01;94287.31;;;18.61;100.00
6030;BME280;3043;42.682;23.376;2022-11-20T07:28:27;94281.84;;;18.64;100.00
6030;BME280;3043;42.682;23.376;2022-11-20T07:30:53;94280.94;;;18.65;100.00
6030;BME280;3043;42.682;23.376;2022-11-20T07:33:19;94283.56;;;18.65;100.00
6030;BME280;3043;42.682;23.376;2022-11-20T07:35:44;94281.13;;;18.62;100.00
6030;BME280;3043;42.682;23.376;2022-11-20T07:38:10;94281.84;;;18.64;100.00
6030;BME280;3043;42.682;23.376;2022-11-20T07:40:35;94279.97;;;18.66;100.00
6030;BME280;3043;42.682;23.376;2022-11-20T07:43:01;94283.34;;;18.68;100.00
6030;BME280;3043;42.682;23.376;2022-11-20T07:45:26;94281.25;;;18.73;100.00
6030;BME280;3043;42.682;23.376;2022-11-20T07:47:52;94272.88;;;18.68;100.00
6030;BME280;3043;42.682;23.376;2022-11-20T07:50:18;94295.94;;;18.76;100.00
6030;BME280;3043;42.682;23.376;2022-11-20T07:52:44;94289.31;;;18.70;100.00
6030;BME280;3043;42.682;23.376;2022-11-20T07:55:10;94296.75;;;18.64;100.00
6030;BME280;3043;42.682;23.376;2022-11-20T07:57:35;94293.28;;;18.63;100.00
6030;BME280;3043;42.682;23.376;2022-11-20T08:00:03;94296.97;;;18.61;100.00
6030;BME280;3043;42.682;23.376;2022-11-20T08:02:29;94296.13;;;18.60;100.00
6030;BME280;3043;42.682;23.376;2022-11-20T08:04:54;94292.75;;;18.58;100.00
6030;BME280;3043;42.682;23.376;2022-11-20T08:07:20;94286.03;;;18.54;100.00
6030;BME280;3043;42.682;23.376;2022-11-20T08:09:45;94286.03;;;18.54;100.00
6030;BME280;3043;42.682;23.376;2022-11-20T08:12:20;94296.53;;;18.54;100.00
6030;BME280;3043;42.682;23.376;2022-11-20T08:15:05;94283.72;;;18.50;100.00
6030;BME280;3043;42.682;23.376;2022-11-20T08:17:31;94278.47;;;18.50;100.00
6030;BME280;3043;42.682;23.376;2022-11-20T08:19:57;94279.13;;;18.53;100.00
6030;BME280;3043;42.682;23.376;2022-11-20T08:22:22;94277.88;;;18.59;100.00
6030;BME280;3043;42.682;23.376;2022-11-20T08:24:48;94271.88;;;18.57;100.00
6030;BME280;3043;42.682;23.376;2022-11-20T08:27:13;94273.47;;;18.59;100.00
6030;BME280;3043;42.682;23.376;2022-11-20T08:29:39;94264.66;;;18.60;100.00
6030;BME280;3043;42.682;23.376;2022-11-20T08:32:04;94277.47;;;18.65;100.00
6030;BME280;3043;42.682;23.376;2022-11-20T08:34:30;94277.91;;;18.71;100.00
6030;BME280;3043;42.682;23.376;2022-11-20T08:36:55;94285.75;;;18.71;100.00
6030;BME280;3043;42.682;23.376;2022-11-20T08:39:21;94276.84;;;18.74;100.00
6030;BME280;3043;42.682;23.376;2022-11-20T08:41:46;94274.75;;;18.91;100.00
6030;BME280;3043;42.682;23.376;2022-11-20T08:44:11;94284.53;;;18.89;100.00
6030;BME280;3043;42.682;23.376;2022-11-20T08:46:39;94287.16;;;18.89;100.00
6030;BME280;3043;42.682;23.376;2022-11-20T08:49:07;94293.75;;;18.95;100.00
6030;BME280;3043;42.682;23.376;2022-11-20T08:51:33;94303.09;;;18.86;100.00
6030;BME280;3043;42.682;23.376;2022-11-20T08:53:59;94318.03;;;18.72;100.00
6030;BME280;3043;42.682;23.376;2022-11-20T08:56:24;94325.91;;;18.59;100.00
6030;BME280;3043;42.682;23.376;2022-11-20T08:58:51;94328.59;;;18.31;100.00
6030;BME280;3043;42.682;23.376;2022-11-20T09:01:18;94327.06;;;18.41;100.00
6030;BME280;3043;42.682;23.376;2022-11-20T09:03:43;94319.41;;;18.65;100.00
6030;BME280;3043;42.682;23.376;2022-11-20T09:06:09;94324.19;;;18.58;100.00
6030;BME280;3043;42.682;23.376;2022-11-20T09:08:35;94322.56;;;18.82;100.00
6030;BME280;3043;42.682;23.376;2022-11-20T09:11:01;94316.28;;;18.97;100.00
6030;BME280;3043;42.682;23.376;2022-11-20T09:13:27;94315.28;;;19.00;100.00
6030;BME280;3043;42.682;23.376;2022-11-20T09:15:58;94332.03;;;18.97;100.00
6030;BME280;3043;42.682;23.376;2022-11-20T09:18:24;94340.44;;;19.02;100.00
6030;BME280;3043;42.682;23.376;2022-11-20T09:20:50;94335.81;;;18.93;100.00
6030;BME280;3043;42.682;23.376;2022-11-20T09:23:16;94336.22;;;18.87;100.00
6030;BME280;3043;42.682;23.376;2022-11-20T09:25:42;94325.28;;;18.68;100.00
6030;BME280;3043;42.682;23.376;2022-11-20T09:28:07;94335.44;;;18.60;100.00
6030;BME280;3043;42.682;23.376;2022-11-20T09:30:33;94338.50;;;18.40;100.00
6030;BME280;3043;42.682;23.376;2022-11-20T09:32:58;94325.78;;;18.34;100.00
6030;BME280;3043;42.682;23.376;2022-11-20T09:35:24;94318.84;;;17.80;100.00
6030;BME280;3043;42.682;23.376;2022-11-20T09:37:49;94320.13;;;17.87;100.00
6030;BME280;3043;42.682;23.376;2022-11-20T09:56:20;94271.75;;;17.52;100.00
6030;BME280;3043;42.682;23.376;2022-11-20T09:58:49;94279.06;;;17.47;100.00
6030;BME280;3043;42.682;23.376;2022-11-20T10:01:20;94277.84;;;17.52;100.00
6030;BME280;3043;42.682;23.376;2022-11-20T10:06:23;94279.81;;;17.49;100.00
6030;BME280;3043;42.682;23.376;2022-11-20T10:12:02;94255.88;;;16.99;100.00
6030;BME280;3043;42.682;23.376;2022-11-20T10:19:47;94246.53;;;16.37;100.00
6030;BME280;3043;42.682;23.376;2022-11-20T10:25:20;94215.97;;;16.10;100.00
6030;BME280;3043;42.682;23.376;2022-11-20T10:27:59;94218.00;;;16.04;100.00
6030;BME280;3043;42.682;23.376;2022-11-20T10:30:30;94195.28;;;16.07;100.00
6030;BME280;3043;42.682;23.376;2022-11-20T10:33:04;94194.91;;;16.13;100.00
6030;BME280;3043;42.682;23.376;2022-11-20T10:38:01;94211.16;;;16.32;100.00
6030;BME280;3043;42.682;23.376;2022-11-20T10:43:02;94214.31;;;16.52;100.00
6030;BME280;3043;42.682;23.376;2022-11-20T10:45:53;94213.50;;;16.66;100.00
6030;BME280;3043;42.682;23.376;2022-11-20T10:48:24;94223.13;;;16.79;100.00
6030;BME280;3043;42.682;23.376;2022-11-20T10:56:42;94210.81;;;16.81;100.00
6030;BME280;3043;42.682;23.376;2022-11-20T11:02:21;94246.53;;;16.81;100.00
6030;BME280;3043;42.682;23.376;2022-11-20T11:04:52;94255.16;;;16.83;100.00
6030;BME280;3043;42.682;23.376;2022-11-20T11:07:27;94247.47;;;16.94;100.00
6030;BME280;3043;42.682;23.376;2022-11-20T11:09:56;94259.03;;;16.76;100.00
6030;BME280;3043;42.682;23.376;2022-11-20T11:12:24;94256.78;;;16.70;100.00
6030;BME280;3043;42.682;23.376;2022-11-20T11:14:52;94280.31;;;16.70;100.00
6030;BME280;3043;42.682;23.376;2022-11-20T11:17:24;94266.94;;;16.31;100.00
6030;BME280;3043;42.682;23.376;2022-11-20T11:22:45;94280.69;;;15.42;100.00
6030;BME280;3043;42.682;23.376;2022-11-20T11:25:22;94297.09;;;14.96;100.00
6030;BME280;3043;42.682;23.376;2022-11-20T11:27:49;94289.22;;;14.64;100.00
6030;BME280;3043;42.682;23.376;2022-11-20T11:30:17;94289.47;;;14.42;100.00
6030;BME280;3043;42.682;23.376;2022-11-20T11:32:42;94267.28;;;14.35;100.00
6030;BME280;3043;42.682;23.376;2022-11-20T11:35:21;94288.41;;;14.29;100.00
6030;BME280;3043;42.682;23.376;2022-11-20T11:37:47;94296.00;;;14.34;100.00
6030;BME280;3043;42.682;23.376;2022-11-20T11:40:13;94300.81;;;14.41;100.00
6030;BME280;3043;42.682;23.376;2022-11-20T11:42:43;94301.44;;;14.46;100.00
6030;BME280;3043;42.682;23.376;2022-11-20T11:45:15;94284.41;;;14.56;100.00
6030;BME280;3043;42.682;23.376;2022-11-20T11:50:26;94284.25;;;14.59;100.00
6030;BME280;3043;42.682;23.376;2022-11-20T11:55:56;94281.59;;;14.44;100.00
6030;BME280;3043;42.682;23.376;2022-11-20T12:01:41;94267.88;;;14.23;100.00
6030;BME280;3043;42.682;23.376;2022-11-20T12:07:35;94248.63;;;14.08;100.00
6030;BME280;3043;42.682;23.376;2022-11-20T12:09:57;94255.69;;;14.06;100.00
6030;BME280;3043;42.682;23.376;2022-11-20T12:12:44;94270.75;;;14.00;100.00
6030;BME280;3043;42.682;23.376;2022-11-20T12:15:13;94278.44;;;14.20;100.00
6030;BME280;3043;42.682;23.376;2022-11-20T12:17:41;94287.03;;;14.39;100.00
6030;BME280;3043;42.682;23.376;2022-11-20T12:20:15;94259.06;;;14.43;100.00
6030;BME280;3043;42.682;23.376;2022-11-20T12:22:53;94258.38;;;14.39;100.00
6030;BME280;3043;42.682;23.376;2022-11-20T12:25:30;94265.88;;;14.45;100.00
6030;BME280;3043;42.682;23.376;2022-11-20T12:32:01;94256.41;;;14.44;100.00
6030;BME280;3043;42.682;23.376;2022-11-20T12:36:52;94293.69;;;14.27;100.00
6030;BME280;3043;42.682;23.376;2022-11-20T12:39:41;94258.06;;;14.11;100.00
6030;BME280;3043;42.682;23.376;2022-11-20T12:45:33;94202.50;;;14.29;100.00
6030;BME280;3043;42.682;23.376;2022-11-20T12:53:45;94206.78;;;14.30;100.00
6030;BME280;3043;42.682;23.376;2022-11-20T12:56:40;94211.53;;;14.39;100.00
6030;BME280;3043;42.682;23.376;2022-11-20T13:01:50;94216.09;;;14.51;100.00
6030;BME280;3043;42.682;23.376;2022-11-20T13:07:10;94198.97;;;14.47;100.00
6030;BME280;3043;42.682;23.376;2022-11-20T13:09:42;94192.69;;;14.34;100.00
6030;BME280;3043;42.682;23.376;2022-11-20T13:14:45;94161.75;;;14.28;100.00
6030;BME280;3043;42.682;23.376;2022-11-20T13:19:53;94131.09;;;14.50;100.00
6030;BME280;3043;42.682;23.376;2022-11-20T13:22:43;94195.41;;;14.48;100.00
6030;BME280;3043;42.682;23.376;2022-11-20T13:25:10;94233.91;;;14.43;100.00
6030;BME280;3043;42.682;23.376;2022-11-20T13:27:35;94246.53;;;14.51;100.00
6030;BME280;3043;42.682;23.376;2022-11-20T13:30:13;94192.81;;;14.48;100.00
6030;BME280;3043;42.682;23.376;2022-11-20T13:32:57;94142.41;;;14.16;100.00
6030;BME280;3043;42.682;23.376;2022-11-20T13:35:31;94220.72;;;14.29;100.00
6030;BME280;3043;42.682;23.376;2022-11-20T13:40:36;94222.22;;;14.16;100.00
6030;BME280;3043;42.682;23.376;2022-11-20T13:43:14;94192.53;;;14.37;100.00
6030;BME280;3043;42.682;23.376;2022-11-20T13:45:41;94215.69;;;14.26;100.00
6030;BME280;3043;42.682;23.376;2022-11-20T13:48:21;94213.66;;;14.31;100.00
6030;BME280;3043;42.682;23.376;2022-11-20T14:01:54;94219.31;;;14.22;100.00
6030;BME280;3043;42.682;23.376;2022-11-20T14:04:26;94240.63;;;14.30;100.00
6030;BME280;3043;42.682;23.376;2022-11-20T14:06:54;94219.34;;;14.39;100.00
6030;BME280;3043;42.682;23.376;2022-11-20T14:09:28;94219.47;;;14.53;100.00
6030;BME280;3043;42.682;23.376;2022-11-20T14:11:54;94236.75;;;14.54;100.00
6030;BME280;3043;42.682;23.376;2022-11-20T14:14:22;94226.19;;;14.57;100.00
6030;BME280;3043;42.682;23.376;2022-11-20T14:16:48;94189.41;;;14.63;100.00
6030;BME280;3043;42.682;23.376;2022-11-20T14:21:46;94194.59;;;14.48;100.00
6030;BME280;3043;42.682;23.376;2022-11-20T14:24:13;94200.31;;;14.54;100.00
6030;BME280;3043;42.682;23.376;2022-11-20T14:26:45;94210.72;;;14.54;100.00
6030;BME280;3043;42.682;23.376;2022-11-20T14:29:16;94195.75;;;14.42;100.00
6030;BME280;3043;42.682;23.376;2022-11-20T14:31:44;94194.63;;;14.63;100.00
6030;BME280;3043;42.682;23.376;2022-11-20T14:34:16;94195.84;;;14.73;100.00
6030;BME280;3043;42.682;23.376;2022-11-20T14:36:43;94204.22;;;14.78;100.00
6030;BME280;3043;42.682;23.376;2022-11-20T14:39:11;94219.69;;;14.81;100.00
6030;BME280;3043;42.682;23.376;2022-11-20T14:41:37;94224.97;;;14.80;100.00
6030;BME280;3043;42.682;23.376;2022-11-20T14:44:04;94221.56;;;14.79;100.00
6030;BME280;3043;42.682;23.376;2022-11-20T14:46:30;94226.44;;;14.85;100.00
6030;BME280;3043;42.682;23.376;2022-11-20T14:48:57;94214.16;;;14.87;100.00
6030;BME280;3043;42.682;23.376;2022-11-20T14:51:34;94219.22;;;14.90;100.00